PENO2: Grand Lake O' The Cherokees, Pensacola Dm

Data processed at Fri Dec 08 2017 23:31


All information presented herein is the property of the government of the United States of America and may be revised or deleted at any time without prior notice.
Dissemination of this information without the expressed written consent of the Public Affairs Office, Tulsa District U.S. Army Corps of Engineers is strictly prohibited.
These data are gathered electronically and, as presented, have not undergone any form of quality control. These data are not guaranteed to be valid or correct.
Go to home page.
Go to station list.

Upstream stations:

Downstream station:
Previous Day
Next Day
Current Day
    
SHEF ID:       PENO2     Lake O' the Cherokees at Langley
STATION TYPE:  RESERVOIR

               PRECIP ELEVATION   STORAGE    INFLOW   RELEASE  AIR-TEMP  WIND-DIRWIND-SPEED REL-HUMID SOLAR-RAD   VOLTAGE  BAT-LOAD
                   in        ft     ac-ft       cfs       cfs         F       deg       mph         %      W/m2      volt      volt
              Ccp-Rev   Ccp-Rev   Ccp-Rev  Regi-Rev  Regi-Rev   Ccp-Rev   Ccp-Rev   Ccp-Rev   Ccp-Rev   Ccp-Rev   Ccp-Rev   Ccp-Rev
(US/Central)
12/06 00:00      0.00    741.99   1392304        36         0     35.04    116.44      1.72     57.08      0.00     12.57     12.33
12/06 01:00      0.00    741.98   1391908       263         0     35.31    140.76      1.43     55.42      0.00     12.57     12.33
12/06 02:00      0.00    741.97   1391512       378         0     34.16    114.37      1.69     63.85      0.00     12.56     12.25
12/06 03:00      0.00    741.98   1391908       512         0     34.34    118.80      2.19     59.82      0.00     12.56     12.25
12/06 04:00      0.00    741.99   1392304       646         0     35.76    147.61      2.57     54.16      0.00     12.55     12.25
12/06 05:00      0.00    741.99   1392304       789       437     35.98    167.86      2.74     50.34      0.00     12.54     12.25
12/06 06:00      0.00    741.98   1391908       678      2186     34.81    158.88      2.31     52.92      0.00     12.54     12.25
12/06 07:00      0.00    741.99   1392304       544       108     34.16    134.80      1.70     58.73      0.00     12.53     12.25
12/06 08:00      0.00    742.01   1393103       410         0     34.21    130.93      1.24     61.11     21.30     12.54     12.25
12/06 09:00      0.00    742.00   1392700      1352         0     36.28    188.15      2.73     52.58    172.17     12.53     12.25
12/06 10:00      0.00    741.98   1391908      1547      1639     38.82    191.77      3.02     48.18    277.19     12.54     12.25
12/06 11:00      0.00    741.99   1392304      1413      2296     42.89    208.37      1.92     43.85    447.30     13.49     13.21
12/06 12:00      0.00    742.01   1393103      1413      2177     46.63    228.86      2.21     40.74    513.72     13.48     13.21
12/06 13:00      0.00    742.00   1392700      1413         0     49.28    291.52      5.25     38.58    520.20     13.51     13.13
12/06 14:00      0.00    742.01   1393103       371         0     51.17    303.98      8.69     35.87    467.69     13.51     13.05
12/06 15:00      0.00    742.01   1393103        34         0     51.96    290.47      8.52     34.48    362.12     13.08     12.97
12/06 16:00      0.00    742.01   1393103        34      1198     52.52    289.11      8.45     32.70    214.72     12.92     12.65
12/06 17:00      0.00    742.02   1393506        34         0     51.93    296.75      9.68     33.97     53.22     12.88     12.65
12/06 18:00      0.00    742.01   1393103        34         0     49.48    304.81      8.86     38.66      0.00     12.85     12.57
12/06 19:00      0.00    742.00   1392700         0         0     47.26    299.48      6.76     40.94      0.00     12.83     12.57
12/06 20:00      0.00    741.99   1392304       185         0     45.09    283.37      5.81     42.22      0.00     12.81     12.57
12/06 21:00      0.00    742.01   1393103       370         0     43.92    256.68      5.01     38.54      0.00     12.79     12.57
12/06 22:00      0.00    741.99   1392304       555         0     42.94    240.68      3.53     36.30      0.00     12.77     12.49
12/06 23:00      0.00    741.99   1392304       694         0     42.01    267.84      4.03     39.08      0.00     12.75     12.49